Time;durP1;ratioP1;P1;durP2;ratioP2;P2;SDS_P1;SDS_P2;PMS_P1;PMS_P2;Temp;Humidity;BMP_temperature;BMP_pressure;BME280_temperature;BME280_humidity;BME280_pressure;Samples;Min_cycle;Max_cycle;Signal;HPM_P1;HPM_P2
2021/04/09 00:01:51;;;;;;;3.03;2.10;;;;;;;1.94;65.20;100856.69;5009802;28;20034;-68
2021/04/09 00:04:16;;;;;;;3.20;1.85;;;;;;;1.95;66.07;100858.34;5007651;28;20037;-68
2021/04/09 00:06:42;;;;;;;2.97;2.00;;;;;;;1.96;65.27;100853.06;4997664;28;20491;-68
2021/04/09 00:09:09;;;;;;;4.90;2.33;;;;;;;1.89;66.18;100857.78;5007563;28;20216;-68
2021/04/09 00:11:36;;;;;;;3.97;2.25;;;;;;;1.83;68.94;100852.91;5001300;28;20026;-68
2021/04/09 00:14:02;;;;;;;3.75;2.17;;;;;;;1.83;64.90;100849.47;5009612;28;20040;-68
2021/04/09 00:16:28;;;;;;;6.68;2.80;;;;;;;1.77;66.79;100852.44;5007692;28;20049;-68
2021/04/09 00:18:53;;;;;;;4.38;2.55;;;;;;;1.64;66.04;100842.69;4991847;28;20030;-68
2021/04/09 00:21:19;;;;;;;5.85;3.38;;;;;;;1.71;64.47;100837.97;5005393;28;20037;-68
2021/04/09 00:23:44;;;;;;;5.50;2.60;;;;;;;1.67;67.85;100833.88;5009115;28;20050;-68
2021/04/09 00:26:09;;;;;;;4.60;2.85;;;;;;;1.63;68.07;100841.00;5008315;28;20402;-69
2021/04/09 00:28:35;;;;;;;4.18;2.67;;;;;;;1.51;68.46;100844.31;4991569;28;20087;-68
2021/04/09 00:31:00;;;;;;;4.53;2.55;;;;;;;1.44;67.85;100842.97;5009004;28;20100;-68
2021/04/09 00:33:25;;;;;;;4.75;2.97;;;;;;;1.36;67.82;100838.19;5008107;28;20262;-70
2021/04/09 00:35:50;;;;;;;4.53;2.75;;;;;;;1.30;70.57;100845.50;5000990;28;20046;-68
2021/04/09 00:38:16;;;;;;;4.30;2.47;;;;;;;1.30;69.38;100833.31;5008644;28;20570;-68
2021/04/09 00:40:41;;;;;;;4.95;3.03;;;;;;;1.26;68.36;100835.25;5001961;28;20041;-69
2021/04/09 00:43:08;;;;;;;6.25;3.28;;;;;;;1.12;69.44;100831.72;5001150;28;20030;-69
2021/04/09 00:45:35;;;;;;;6.05;3.10;;;;;;;1.04;69.14;100832.13;5010756;28;20033;-69
2021/04/09 00:48:00;;;;;;;5.07;2.80;;;;;;;1.08;69.16;100828.44;5010157;28;20037;-70
2021/04/09 00:50:26;;;;;;;4.85;2.95;;;;;;;1.17;68.03;100816.66;5012515;28;20056;-69
2021/04/09 00:52:53;;;;;;;4.47;2.95;;;;;;;1.26;70.24;100824.84;5009050;28;20046;-70
2021/04/09 00:55:18;;;;;;;6.30;3.72;;;;;;;1.18;69.85;100813.16;5012472;28;20042;-70
2021/04/09 00:57:44;;;;;;;5.82;3.50;;;;;;;1.12;68.73;100809.13;5007738;28;20411;-69
2021/04/09 01:00:12;;;;;;;5.00;3.10;;;;;;;1.06;68.72;100817.28;5004745;28;20120;-69
2021/04/09 01:02:38;;;;;;;4.70;3.13;;;;;;;1.06;70.47;100805.09;5012063;28;20114;-69
2021/04/09 01:05:06;;;;;;;5.32;2.83;;;;;;;1.12;68.86;100808.28;5012205;28;20507;-69
2021/04/09 01:07:31;;;;;;;4.85;2.40;;;;;;;1.18;70.76;100814.00;5006692;28;20130;-69
2021/04/09 01:09:57;;;;;;;5.40;2.90;;;;;;;1.16;69.34;100807.19;5012726;28;20125;-69
2021/04/09 01:12:22;;;;;;;5.88;2.75;;;;;;;1.15;67.65;100811.56;5010443;28;20034;-69
2021/04/09 01:14:48;;;;;;;4.07;2.38;;;;;;;1.20;68.16;100806.94;5011787;28;20495;-69
2021/04/09 01:17:20;;;;;;;4.22;2.30;;;;;;;1.23;71.02;100798.13;5011691;28;20054;-69
2021/04/09 01:20:14;;;;;;;4.30;2.65;;;;;;;1.26;70.65;100800.53;5007453;28;20030;-69
2021/04/09 01:22:45;;;;;;;4.90;2.85;;;;;;;1.30;67.58;100794.25;5004800;28;20108;-69
2021/04/09 01:25:36;;;;;;;5.25;2.92;;;;;;;1.30;70.89;100790.78;5011846;28;20038;-70
2021/04/09 01:28:21;;;;;;;4.45;2.75;;;;;;;1.29;68.97;100787.38;5007755;28;20394;-70
2021/04/09 01:31:17;;;;;;;4.47;2.50;;;;;;;1.25;70.70;100783.25;4998866;28;20030;-69
2021/04/09 01:33:45;;;;;;;4.55;2.88;;;;;;;1.26;69.53;100779.69;5012167;28;20449;-69
2021/04/09 01:36:14;;;;;;;5.72;2.70;;;;;;;1.16;71.19;100778.53;5010553;28;20045;-68
2021/04/09 01:38:44;;;;;;;5.72;3.40;;;;;;;1.05;70.33;100782.59;5012091;28;20101;-69
2021/04/09 01:41:11;;;;;;;4.00;2.67;;;;;;;1.00;70.80;100774.19;5010550;28;20053;-69
2021/04/09 01:43:38;;;;;;;6.22;3.90;;;;;;;0.84;71.76;100783.75;5012390;28;20026;-69
2021/04/09 01:46:05;;;;;;;5.57;3.35;;;;;;;0.71;74.15;100777.53;4993179;28;20177;-69
2021/04/09 01:48:34;;;;;;;5.68;3.30;;;;;;;0.73;71.88;100771.31;5004293;28;20060;-69
2021/04/09 01:51:01;;;;;;;8.20;3.60;;;;;;;0.69;72.08;100772.41;5011840;28;20398;-69
2021/04/09 01:53:29;;;;;;;5.82;3.70;;;;;;;0.56;72.19;100771.38;5012028;28;20387;-69
2021/04/09 01:55:56;;;;;;;6.45;3.58;;;;;;;0.57;73.18;100770.44;5003598;28;20038;-69
2021/04/09 01:58:23;;;;;;;5.20;3.30;;;;;;;0.56;71.99;100766.19;5010652;28;20087;-69
2021/04/09 02:00:50;;;;;;;6.45;3.25;;;;;;;0.52;71.66;100768.09;5011348;28;20453;-69
2021/04/09 02:03:21;;;;;;;7.85;4.00;;;;;;;0.52;73.13;100768.09;4994124;28;20093;-69
2021/04/09 02:05:46;;;;;;;;;;;;;;;0.58;71.44;100769.53;5011794;28;20034;-69
2021/04/09 02:08:13;;;;;;;6.05;3.10;;;;;;;0.58;73.64;100769.53;5011331;28;19917;-69
2021/04/09 02:10:39;;;;;;;6.70;3.40;;;;;;;0.56;72.16;100769.63;5011719;28;20080;-69
2021/04/09 02:13:09;;;;;;;5.82;3.22;;;;;;;0.63;73.77;100770.13;5007608;28;20125;-69
2021/04/09 02:15:34;;;;;;;5.00;2.95;;;;;;;0.70;71.33;100766.28;4999641;28;20070;-69
2021/04/09 02:18:00;;;;;;;5.25;2.45;;;;;;;0.76;70.17;100768.56;5010593;28;20057;-69
2021/04/09 02:20:25;;;;;;;3.35;2.08;;;;;;;0.77;71.90;100767.63;5002848;28;20034;-69
2021/04/09 02:22:52;;;;;;;5.72;3.30;;;;;;;0.88;69.48;100761.81;5010631;28;20045;-69
2021/04/09 02:25:20;;;;;;;8.43;4.65;;;;;;;0.92;69.78;100760.72;5002019;28;20042;-69
2021/04/09 02:27:47;;;;;;;6.68;3.00;;;;;;;0.88;73.97;100756.59;5007473;28;20042;-69
2021/04/09 02:30:14;;;;;;;4.63;2.60;;;;;;;0.91;69.94;100759.06;5009922;28;20068;-70
2021/04/09 02:32:40;;;;;;;4.55;2.80;;;;;;;0.84;72.52;100757.72;5008950;28;20125;-69
2021/04/09 02:35:07;;;;;;;5.40;2.83;;;;;;;0.81;72.99;100758.72;5010599;28;20617;-69
2021/04/09 02:37:33;;;;;;;5.15;2.80;;;;;;;0.72;74.18;100763.59;5010759;28;20038;-69
2021/04/09 02:40:05;;;;;;;7.18;3.72;;;;;;;0.65;73.11;100762.25;5005960;28;20042;-69
2021/04/09 02:42:30;;;;;;;3.97;3.03;;;;;;;0.57;73.54;100760.91;5010620;28;20077;-69
2021/04/09 02:44:56;;;;;;;4.55;2.88;;;;;;;0.53;73.01;100761.97;5008421;28;20100;-70
2021/04/09 02:47:27;;;;;;;4.18;2.80;;;;;;;0.54;74.10;100760.22;5001493;28;20030;-68
2021/04/09 02:50:03;;;;;;;5.65;3.00;;;;;;;0.55;71.29;100756.66;5004928;28;20564;-69
2021/04/09 02:52:39;;;;;;;4.57;2.92;;;;;;;0.58;74.49;100762.56;5010518;28;20121;-68
2021/04/09 02:55:13;;;;;;;5.13;3.05;;;;;;;0.64;72.54;100756.19;5002823;28;20573;-69
2021/04/09 02:57:39;;;;;;;4.63;2.80;;;;;;;0.65;70.52;100752.69;5003697;28;20116;-69
2021/04/09 03:00:07;;;;;;;6.38;3.80;;;;;;;0.67;70.32;100753.44;4992371;28;20054;-70
2021/04/09 03:02:33;;;;;;;6.53;3.75;;;;;;;0.55;73.74;100749.72;5009166;28;20399;-69
2021/04/09 03:05:00;;;;;;;5.90;3.47;;;;;;;0.53;73.54;100746.38;5009965;28;20124;-69
2021/04/09 03:07:25;;;;;;;7.70;3.83;;;;;;;0.40;73.61;100742.72;5007325;28;20294;-69
2021/04/09 03:09:51;;;;;;;5.63;3.67;;;;;;;0.32;73.37;100750.94;5007078;28;20386;-69
2021/04/09 03:12:19;;;;;;;6.78;3.40;;;;;;;0.24;74.95;100747.91;4990515;28;20559;-69
2021/04/09 03:14:46;;;;;;;7.85;3.55;;;;;;;0.18;74.24;100749.06;5008057;28;20384;-69
2021/04/09 03:17:17;;;;;;;5.50;3.45;;;;;;;0.18;75.51;100745.63;5005054;28;20041;-69
2021/04/09 03:19:43;;;;;;;5.15;3.38;;;;;;;0.17;74.28;100746.56;5010029;28;20030;-69
2021/04/09 03:22:10;;;;;;;7.55;4.18;;;;;;;0.05;74.31;100748.03;5009437;28;20038;-70
2021/04/09 03:24:36;;;;;;;5.43;3.22;;;;;;;0.03;77.50;100741.22;5005670;28;20450;-68
2021/04/09 03:27:01;;;;;;;7.22;3.83;;;;;;;0.01;75.25;100749.09;5009554;28;20030;-68
2021/04/09 03:29:27;;;;;;;6.25;3.30;;;;;;;0.10;74.23;100746.03;5010005;28;20030;-69
2021/04/09 03:31:52;;;;;;;5.93;3.17;;;;;;;0.14;77.00;100747.56;5009810;28;20036;-68
2021/04/09 03:34:19;;;;;;;4.82;3.00;;;;;;;0.21;73.06;100742.84;5008249;28;20042;-68
2021/04/09 03:36:45;;;;;;;5.78;2.97;;;;;;;0.26;72.18;100738.25;5009387;28;20455;-68
2021/04/09 03:39:10;;;;;;;6.03;3.50;;;;;;;0.23;74.13;100737.59;5001233;28;20049;-68
2021/04/09 03:41:35;;;;;;;6.80;3.80;;;;;;;0.25;74.96;100741.78;5009751;28;20030;-67
2021/04/09 03:44:00;;;;;;;6.28;3.85;;;;;;;0.22;77.47;100741.13;4991920;28;20040;-68
2021/04/09 03:46:26;;;;;;;6.13;3.67;;;;;;;0.17;75.44;100741.34;5006776;28;20584;-68
2021/04/09 03:48:51;;;;;;;8.23;4.60;;;;;;;0.06;74.85;100735.84;5003726;28;20036;-67
2021/04/09 03:51:16;;;;;;;6.93;3.85;;;;;;;0.02;74.55;100739.53;4999952;28;20049;-67
2021/04/09 03:53:42;;;;;;;6.10;3.83;;;;;;;0.02;76.12;100737.75;5009483;28;20038;-68
2021/04/09 03:56:07;;;;;;;7.07;4.43;;;;;;;0.01;77.46;100735.25;5008451;28;20057;-68
2021/04/09 03:58:32;;;;;;;7.35;4.20;;;;;;;0.03;77.18;100728.22;4994785;28;20030;-68
2021/04/09 04:00:58;;;;;;;5.25;3.35;;;;;;;0.10;76.34;100730.44;5009355;28;20503;-68
2021/04/09 04:03:23;;;;;;;5.35;3.17;;;;;;;0.13;77.55;100729.41;4994797;28;20088;-67
2021/04/09 04:05:48;;;;;;;8.60;5.15;;;;;;;0.25;73.59;100722.75;5009583;28;20371;-67
2021/04/09 04:08:14;;;;;;;8.48;4.88;;;;;;;0.23;73.32;100715.00;5005676;28;20033;-68
2021/04/09 04:10:39;;;;;;;5.07;3.60;;;;;;;0.22;75.77;100715.94;5009032;28;20045;-68
2021/04/09 04:13:04;;;;;;;7.00;3.88;;;;;;;0.32;74.51;100724.09;5002705;28;20062;-68
2021/04/09 04:15:30;;;;;;;4.53;3.15;;;;;;;0.31;74.74;100722.41;5006026;28;20030;-68
2021/04/09 04:17:55;;;;;;;6.82;3.88;;;;;;;0.23;75.64;100721.97;4997667;28;20037;-67
2021/04/09 04:20:20;;;;;;;6.40;4.18;;;;;;;0.13;76.32;100725.06;5007436;28;20399;-68
2021/04/09 04:22:45;;;;;;;5.60;3.47;;;;;;;0.09;74.55;100715.72;5009196;28;20518;-68
2021/04/09 04:25:11;;;;;;;8.35;4.47;;;;;;;0.03;75.33;100710.03;5008224;28;20033;-68
2021/04/09 04:27:37;;;;;;;8.02;4.75;;;;;;;-0.07;76.00;100710.50;5002852;28;20505;-68
2021/04/09 04:30:03;;;;;;;6.85;4.55;;;;;;;-0.17;76.22;100709.28;5004854;28;20022;-67
2021/04/09 04:32:29;;;;;;;9.88;4.43;;;;;;;-0.19;77.07;100718.94;5007868;28;20042;-67
2021/04/09 04:34:54;;;;;;;8.15;3.78;;;;;;;-0.13;76.01;100716.00;5008439;28;20537;-68
2021/04/09 04:37:19;;;;;;;7.95;5.05;;;;;;;-0.16;77.94;100715.34;5008961;28;20130;-67
2021/04/09 04:39:45;;;;;;;6.68;4.32;;;;;;;-0.20;76.06;100714.63;5008619;28;20546;-67
2021/04/09 04:42:10;;;;;;;6.97;3.85;;;;;;;-0.14;75.98;100722.13;5000289;28;20038;-68
2021/04/09 04:44:35;;;;;;;5.30;3.50;;;;;;;-0.07;77.15;100714.84;5002861;28;20559;-68
2021/04/09 04:47:01;;;;;;;5.82;3.22;;;;;;;0.06;74.77;100717.66;5002488;28;20533;-68
2021/04/09 04:49:26;;;;;;;6.60;4.32;;;;;;;0.16;73.95;100724.06;5008814;28;20112;-68
2021/04/09 04:51:51;;;;;;;9.75;4.53;;;;;;;0.21;74.22;100711.66;4997499;28;20042;-67
2021/04/09 04:54:17;;;;;;;7.75;4.15;;;;;;;0.21;74.55;100716.84;5004281;28;20046;-68
2021/04/09 04:56:42;;;;;;;5.57;3.65;;;;;;;0.16;75.25;100718.84;5008278;28;20415;-68
2021/04/09 04:59:08;;;;;;;6.22;3.80;;;;;;;0.17;77.15;100720.56;5008852;28;20037;-68
2021/04/09 05:01:33;;;;;;;6.28;3.55;;;;;;;0.17;77.21;100710.97;5008556;28;20030;-67
2021/04/09 05:04:00;;;;;;;7.10;4.22;;;;;;;0.19;76.34;100724.75;5008893;28;20042;-68
2021/04/09 05:06:25;;;;;;;6.65;4.15;;;;;;;0.14;76.12;100716.34;5000327;28;20499;-66
2021/04/09 05:08:51;;;;;;;6.38;3.75;;;;;;;0.20;76.20;100704.78;5007837;28;20041;-68
2021/04/09 05:11:16;;;;;;;7.97;4.70;;;;;;;0.31;74.67;100707.66;5008057;28;20026;-68
2021/04/09 05:13:42;;;;;;;7.55;4.65;;;;;;;0.21;75.66;100711.66;5002758;28;20037;-67
2021/04/09 05:16:07;;;;;;;7.53;4.25;;;;;;;0.23;77.85;100712.41;5005314;28;20040;-68
2021/04/09 05:18:32;;;;;;;7.15;4.32;;;;;;;0.28;76.06;100706.97;5009351;28;20088;-68
2021/04/09 05:20:58;;;;;;;7.38;4.20;;;;;;;0.32;77.68;100713.69;5000962;28;20072;-68
2021/04/09 05:23:23;;;;;;;7.22;5.30;;;;;;;0.42;74.49;100709.66;5008454;28;20088;-69
2021/04/09 05:25:48;;;;;;;8.82;4.72;;;;;;;0.46;75.21;100705.16;5002566;28;20038;-67
2021/04/09 05:28:14;;;;;;;7.22;3.63;;;;;;;0.47;75.25;100697.25;5008193;28;20380;-70
2021/04/09 05:30:39;;;;;;;5.60;3.75;;;;;;;0.55;75.24;100708.09;5006090;28;20045;-68
2021/04/09 05:33:05;;;;;;;7.80;5.05;;;;;;;0.54;75.47;100711.59;4994284;28;20045;-68
2021/04/09 05:35:30;;;;;;;8.55;5.63;;;;;;;0.71;74.39;100696.84;5006550;28;20552;-69
2021/04/09 05:37:55;;;;;;;6.88;3.90;;;;;;;0.85;76.27;100702.13;5002966;28;20041;-69
2021/04/09 05:40:21;;;;;;;9.00;4.80;;;;;;;0.96;74.13;100702.38;5012039;28;20513;-68
2021/04/09 05:42:54;;;;;;;8.13;5.18;;;;;;;1.06;74.74;100706.13;5011697;28;20494;-68
2021/04/09 05:45:19;;;;;;;7.93;5.20;;;;;;;1.15;74.32;100703.94;4994123;28;20482;-67
2021/04/09 05:47:44;;;;;;;7.15;4.75;;;;;;;1.19;73.58;100706.28;5012972;28;20030;-67
2021/04/09 05:50:11;;;;;;;9.65;5.18;;;;;;;1.40;73.02;100700.75;5011497;28;20042;-68
2021/04/09 05:52:36;;;;;;;10.35;4.88;;;;;;;1.73;72.91;100692.72;5007368;28;20034;-68
2021/04/09 05:55:02;;;;;;;6.00;4.07;;;;;;;1.98;72.20;100696.47;5012165;28;20438;-68
2021/04/09 05:57:27;;;;;;;9.40;5.03;;;;;;;2.45;71.37;100692.72;4993652;28;20426;-67
2021/04/09 05:59:53;;;;;;;6.40;3.80;;;;;;;2.99;70.27;100690.19;5008221;28;20038;-68
2021/04/09 06:02:18;;;;;;;4.65;3.17;;;;;;;3.79;67.63;100695.34;5010267;28;20514;-67
2021/04/09 06:04:43;;;;;;;4.97;2.45;;;;;;;4.51;66.07;100684.31;5010028;28;20030;-68
2021/04/09 06:07:08;;;;;;;5.03;2.60;;;;;;;5.21;68.84;100692.28;5011364;28;20375;-68
2021/04/09 06:09:34;;;;;;;4.85;2.58;;;;;;;6.00;65.16;100695.13;5008165;28;20030;-68
2021/04/09 06:11:59;;;;;;;4.68;2.92;;;;;;;6.77;61.29;100695.22;4995491;28;20026;-68
2021/04/09 06:14:28;;;;;;;4.13;2.63;;;;;;;7.38;63.14;100689.34;4993807;28;20045;-68
2021/04/09 06:16:54;;;;;;;5.45;3.00;;;;;;;7.57;58.84;100688.66;5005493;28;20038;-68
2021/04/09 06:19:19;;;;;;;5.28;2.90;;;;;;;7.20;54.02;100683.00;5002285;28;20040;-66
2021/04/09 06:21:44;;;;;;;4.55;3.13;;;;;;;7.00;53.48;100682.00;4999549;28;20088;-68
2021/04/09 06:24:10;;;;;;;4.82;3.25;;;;;;;6.83;59.13;100680.72;5009768;28;20088;-67
2021/04/09 06:26:36;;;;;;;5.15;3.30;;;;;;;6.73;59.51;100685.06;5008760;28;20088;-67
2021/04/09 06:29:02;;;;;;;5.75;2.67;;;;;;;6.83;55.59;100688.63;5007294;28;20053;-68
2021/04/09 06:31:28;;;;;;;5.30;3.13;;;;;;;6.96;57.12;100686.69;5008463;28;20045;-68
2021/04/09 06:33:53;;;;;;;6.05;4.25;;;;;;;7.44;56.09;100688.03;5011092;28;20064;-67
2021/04/09 06:36:18;;;;;;;4.03;2.90;;;;;;;7.97;55.03;100684.47;5010855;28;20034;-68
2021/04/09 06:38:44;;;;;;;4.40;2.95;;;;;;;8.60;53.25;100673.75;5011442;28;20399;-68
2021/04/09 06:41:09;;;;;;;5.75;3.42;;;;;;;9.38;53.14;100674.66;5011829;28;20046;-70
2021/04/09 06:43:36;;;;;;;6.68;3.60;;;;;;;9.77;49.45;100675.44;5011208;28;20058;-70
2021/04/09 06:46:01;;;;;;;6.00;3.40;;;;;;;10.32;46.87;100679.16;5011971;28;20029;-70
2021/04/09 06:48:28;;;;;;;5.35;3.00;;;;;;;10.76;49.19;100671.41;5001023;28;20034;-70
2021/04/09 06:50:54;;;;;;;7.40;4.10;;;;;;;10.97;44.79;100671.13;4996635;28;20025;-69
2021/04/09 06:53:20;;;;;;;6.40;3.85;;;;;;;10.98;42.57;100664.84;5012609;28;20026;-70
2021/04/09 06:55:46;;;;;;;8.77;4.13;;;;;;;11.37;41.86;100653.91;5011958;28;20457;-72
2021/04/09 06:58:15;;;;;;;5.18;3.13;;;;;;;11.32;40.94;100661.50;5003531;28;20036;-70
2021/04/09 07:00:42;;;;;;;6.60;3.50;;;;;;;11.37;39.16;100664.50;5012376;28;20587;-69
2021/04/09 07:03:09;;;;;;;7.32;3.38;;;;;;;11.08;39.09;100641.75;5003666;28;20030;-69
2021/04/09 07:05:38;;;;;;;5.53;3.10;;;;;;;11.00;40.18;100652.28;5004179;28;20034;-69
2021/04/09 07:08:04;;;;;;;5.47;3.63;;;;;;;10.86;39.61;100645.72;5011108;28;20107;-70
2021/04/09 07:10:29;;;;;;;8.45;3.30;;;;;;;10.64;40.58;100649.63;5011566;28;21077;-71
2021/04/09 07:13:06;;;;;;;7.03;3.63;;;;;;;10.96;40.83;100646.44;5009727;28;20109;-69
2021/04/09 07:15:43;;;;;;;6.43;3.67;;;;;;;11.14;39.31;100645.63;4992316;28;20038;-70
2021/04/09 07:18:10;;;;;;;7.20;3.55;;;;;;;11.60;39.08;100654.25;4998528;28;20038;-72
2021/04/09 07:20:37;;;;;;;5.18;3.47;;;;;;;11.76;36.97;100654.34;5003177;28;20121;-69
2021/04/09 07:23:05;;;;;;;4.93;3.17;;;;;;;11.59;36.12;100642.00;4985973;28;20034;-70
2021/04/09 07:25:36;;;;;;;6.57;3.42;;;;;;;11.54;37.12;100652.25;5010414;28;20144;-70
2021/04/09 07:28:14;;;;;;;6.90;3.30;;;;;;;11.42;37.38;100654.31;4989651;28;20034;-74
2021/04/09 07:30:41;;;;;;;6.60;3.20;;;;;;;11.59;37.17;100647.31;5003091;28;20504;-71
2021/04/09 07:33:09;;;;;;;4.75;2.97;;;;;;;11.71;37.08;100653.19;5003940;28;20026;-69
2021/04/09 07:35:55;;;;;;;6.70;3.75;;;;;;;11.91;36.53;100649.34;5010251;28;20507;-71
2021/04/09 07:38:27;;;;;;;7.30;3.50;;;;;;;12.03;37.67;100650.72;5008450;28;20042;-71
2021/04/09 07:40:53;;;;;;;8.25;3.22;;;;;;;12.36;36.89;100650.03;5005317;28;20146;-68
2021/04/09 07:43:19;;;;;;;5.47;3.30;;;;;;;12.89;35.63;100639.03;4994590;28;20034;-71
2021/04/09 07:45:44;;;;;;;8.52;3.60;;;;;;;13.33;34.60;100648.56;5009326;28;20176;-70
2021/04/09 07:48:10;;;;;;;5.40;3.10;;;;;;;13.52;33.62;100639.44;4993909;28;20027;-70
2021/04/09 07:50:42;;;;;;;5.38;3.53;;;;;;;13.67;34.01;100634.25;5005133;28;20038;-72
2021/04/09 07:53:19;;;;;;;6.60;3.58;;;;;;;14.06;32.63;100636.13;5010264;28;20034;-71
2021/04/09 07:55:46;;;;;;;7.72;3.53;;;;;;;14.27;33.00;100639.03;4997326;28;20503;-71
2021/04/09 07:58:19;;;;;;;5.05;3.22;;;;;;;14.03;33.08;100640.78;4990090;28;20042;-70
2021/04/09 08:00:48;;;;;;;5.97;3.55;;;;;;;13.63;33.32;100632.91;4997367;28;20384;-71
2021/04/09 08:03:39;;;;;;;4.88;3.10;;;;;;;13.72;34.01;100630.06;4990540;28;20519;-71
2021/04/09 08:06:10;;;;;;;4.97;3.13;;;;;;;13.64;32.82;100635.41;5005714;28;20041;-70
2021/04/09 08:08:38;;;;;;;5.38;3.20;;;;;;;13.45;33.75;100625.16;5009684;28;20041;-70
2021/04/09 08:11:26;;;;;;;6.05;2.90;;;;;;;13.90;33.10;100629.06;4994640;28;20061;-71
2021/04/09 08:14:13;;;;;;;6.82;3.53;;;;;;;14.47;33.16;100626.16;5010178;28;20034;-70
2021/04/09 08:16:47;;;;;;;5.45;3.55;;;;;;;14.05;33.70;100624.66;5002416;28;20503;-70
2021/04/09 08:19:14;;;;;;;7.15;3.60;;;;;;;14.77;32.65;100621.81;5010068;28;20038;-70
2021/04/09 08:22:07;;;;;;;4.65;3.35;;;;;;;15.15;32.88;100613.06;5009832;28;20450;-70
2021/04/09 08:24:35;;;;;;;7.18;3.53;;;;;;;15.58;31.20;100615.97;4991761;28;20111;-71
2021/04/09 08:27:02;;;;;;;6.82;3.65;;;;;;;15.83;30.64;100628.09;5009935;28;20041;-70
2021/04/09 08:29:29;;;;;;;7.32;3.25;;;;;;;15.87;30.13;100615.19;5010477;28;20038;-71
2021/04/09 08:31:55;;;;;;;5.80;3.40;;;;;;;15.44;31.85;100621.09;5006376;28;20041;-71
2021/04/09 08:34:21;;;;;;;5.30;3.00;;;;;;;15.53;30.32;100613.88;4991689;28;20035;-71
2021/04/09 08:36:51;;;;;;;4.85;3.03;;;;;;;16.37;30.45;100612.75;5001284;28;20038;-71
2021/04/09 08:39:18;;;;;;;5.88;3.38;;;;;;;16.33;29.64;100618.47;4989342;28;20502;-71
2021/04/09 08:41:44;;;;;;;5.78;3.20;;;;;;;16.62;29.84;100622.06;5001211;28;20053;-70
2021/04/09 08:44:12;;;;;;;4.93;3.33;;;;;;;16.82;29.28;100616.13;5005676;28;20166;-72
2021/04/09 08:46:38;;;;;;;5.60;3.17;;;;;;;16.77;29.17;100609.47;5009269;28;20041;-69
2021/04/09 08:49:11;;;;;;;8.02;3.60;;;;;;;17.30;28.56;100611.81;5009888;28;20112;-70
2021/04/09 08:51:38;;;;;;;5.90;3.65;;;;;;;16.88;28.70;100604.72;4984534;28;20026;-68
2021/04/09 08:54:20;;;;;;;6.18;3.30;;;;;;;17.45;27.11;100601.06;5010006;28;20034;-68
2021/04/09 08:56:46;;;;;;;5.82;3.08;;;;;;;17.27;27.85;100600.72;5001335;28;20081;-69
2021/04/09 08:59:11;;;;;;;6.78;3.47;;;;;;;17.49;27.33;100598.81;5009044;28;20438;-68
2021/04/09 09:02:21;;;;;;;6.47;3.28;;;;;;;17.90;27.52;100592.69;5006344;28;20038;-69
2021/04/09 09:05:08;;;;;;;5.32;2.90;;;;;;;18.33;26.95;100598.66;4988342;28;20039;-70
2021/04/09 09:07:51;;;;;;;4.53;2.90;;;;;;;18.46;26.46;100598.69;4996837;28;20030;-69
2021/04/09 09:10:20;;;;;;;6.30;3.17;;;;;;;18.83;25.89;100588.50;4998321;28;20100;-70
2021/04/09 09:13:03;;;;;;;6.40;3.03;;;;;;;19.04;25.76;100592.00;5008777;28;20033;-71
2021/04/09 09:15:44;;;;;;;4.75;2.80;;;;;;;18.97;26.70;100597.34;5012026;28;20038;-71
2021/04/09 09:18:21;;;;;;;7.00;3.28;;;;;;;18.71;25.53;100590.13;5009639;28;20510;-70
2021/04/09 09:21:03;;;;;;;4.90;3.20;;;;;;;18.91;26.78;100584.78;5007802;28;20034;-70
2021/04/09 09:23:52;;;;;;;4.95;3.33;;;;;;;19.69;25.21;100586.84;5012994;28;20038;-69
2021/04/09 09:26:39;;;;;;;4.45;3.22;;;;;;;18.97;25.79;100588.50;5012518;28;20533;-68
2021/04/09 09:29:15;;;;;;;6.45;3.30;;;;;;;18.67;26.16;100584.31;5008057;28;20030;-69
2021/04/09 09:32:04;;;;;;;5.97;3.33;;;;;;;18.06;26.39;100579.00;5000746;28;20512;-68
2021/04/09 09:34:32;;;;;;;5.13;3.15;;;;;;;17.67;26.65;100574.25;4996486;28;20486;-68
2021/04/09 09:37:13;;;;;;;6.25;3.22;;;;;;;17.59;27.01;100581.41;5012996;28;20049;-68
2021/04/09 09:39:55;;;;;;;6.50;3.30;;;;;;;17.11;28.87;100569.75;5012706;28;20168;-68
2021/04/09 09:42:21;;;;;;;5.60;3.70;;;;;;;17.71;26.67;100575.50;5012215;28;20038;-70
2021/04/09 09:45:11;;;;;;;6.43;3.45;;;;;;;17.12;26.68;100566.88;5013629;28;20507;-68
2021/04/09 09:47:41;;;;;;;6.03;4.20;;;;;;;17.06;27.40;100561.50;5003944;28;20026;-69
2021/04/09 09:50:08;;;;;;;7.10;3.65;;;;;;;16.73;28.12;100557.50;5012061;28;20033;-68
2021/04/09 09:52:55;;;;;;;10.75;4.50;;;;;;;16.19;28.01;100557.97;5004307;28;20438;-68
2021/04/09 09:55:32;;;;;;;5.43;3.55;;;;;;;16.15;28.93;100554.00;5011009;28;20030;-68
2021/04/09 09:58:04;;;;;;;8.48;3.83;;;;;;;16.08;29.22;100551.25;4992845;28;20118;-67
2021/04/09 10:00:51;;;;;;;6.10;3.92;;;;;;;15.93;29.29;100548.63;5011689;28;20533;-71
2021/04/09 10:03:29;;;;;;;5.45;3.80;;;;;;;15.42;30.16;100545.88;5013610;28;20096;-67
2021/04/09 10:06:05;;;;;;;7.45;4.20;;;;;;;15.22;31.11;100544.72;5015281;28;20053;-67
2021/04/09 10:08:36;;;;;;;6.88;3.90;;;;;;;15.15;31.12;100543.81;4998138;28;20124;-68
2021/04/09 10:11:15;;;;;;;6.13;4.10;;;;;;;15.48;29.51;100531.78;4999384;28;20220;-67
2021/04/09 10:13:44;;;;;;;5.00;3.88;;;;;;;15.21;30.22;100535.09;5009492;28;20430;-68
2021/04/09 10:16:12;;;;;;;5.88;3.80;;;;;;;15.20;30.07;100518.25;4996227;28;20116;-68
2021/04/09 10:18:41;;;;;;;5.10;3.20;;;;;;;14.75;31.64;100521.84;5012858;28;20050;-67
2021/04/09 10:21:20;;;;;;;6.85;4.10;;;;;;;15.20;29.87;100525.44;4997456;28;20034;-68
2021/04/09 10:23:48;;;;;;;6.57;3.92;;;;;;;14.91;31.59;100521.72;4999892;28;20033;-69
2021/04/09 10:26:14;;;;;;;8.32;4.22;;;;;;;14.99;31.15;100520.81;5010943;28;20045;-67
2021/04/09 10:28:41;;;;;;;5.72;3.63;;;;;;;14.93;31.91;100516.22;5013278;28;20495;-70
2021/04/09 10:31:19;;;;;;;6.18;3.90;;;;;;;14.88;31.19;100514.09;5009046;28;20327;-68
2021/04/09 10:33:47;;;;;;;8.45;3.63;;;;;;;15.02;32.37;100510.63;4998956;28;20521;-67
2021/04/09 10:36:33;;;;;;;5.57;3.40;;;;;;;14.82;34.67;100504.97;5002404;28;20040;-68
2021/04/09 10:39:10;;;;;;;7.05;3.83;;;;;;;15.04;31.19;100497.97;5004201;28;20408;-67
2021/04/09 10:41:38;;;;;;;8.57;3.53;;;;;;;15.12;31.17;100494.38;4989365;28;20038;-68
2021/04/09 10:44:12;;;;;;;6.55;3.20;;;;;;;14.98;31.55;100498.69;5007554;28;20048;-67
2021/04/09 10:46:40;;;;;;;4.85;3.08;;;;;;;15.00;30.83;100496.66;5012052;28;20034;-67
2021/04/09 10:49:10;;;;;;;5.95;3.63;;;;;;;14.90;30.59;100492.59;5011193;28;20025;-70
2021/04/09 10:51:44;;;;;;;6.00;3.50;;;;;;;14.58;31.31;100498.03;5004683;28;20511;-67
2021/04/09 10:54:13;;;;;;;6.65;3.40;;;;;;;14.49;32.07;100485.78;5011370;28;20121;-70
2021/04/09 10:56:40;;;;;;;4.65;2.97;;;;;;;14.64;32.03;100493.84;4991036;28;20116;-70
2021/04/09 10:59:08;;;;;;;7.18;3.45;;;;;;;14.68;31.71;100481.00;5007769;28;20033;-71
2021/04/09 11:01:34;;;;;;;7.15;3.50;;;;;;;14.48;33.07;100472.66;5012068;28;20030;-67
2021/04/09 11:04:00;;;;;;;6.35;3.50;;;;;;;14.71;31.99;100470.00;5003644;28;20089;-70
2021/04/09 11:06:26;;;;;;;6.18;3.60;;;;;;;14.85;31.69;100466.53;4996048;28;20507;-73
2021/04/09 11:09:07;;;;;;;5.50;3.65;;;;;;;14.75;31.83;100466.78;4992527;28;20093;-70
2021/04/09 11:11:36;;;;;;;6.10;3.38;;;;;;;14.76;31.75;100454.31;4992717;28;20503;-70
2021/04/09 11:14:07;;;;;;;6.72;3.70;;;;;;;14.81;32.38;100457.25;5009775;28;20368;-69
2021/04/09 11:16:54;;;;;;;7.22;3.83;;;;;;;14.84;32.21;100452.38;5011882;28;20026;-71
2021/04/09 11:19:22;;;;;;;6.35;3.60;;;;;;;14.92;32.04;100462.16;5011143;28;20088;-70
2021/04/09 11:21:49;;;;;;;7.13;3.45;;;;;;;14.78;31.50;100455.78;5010166;28;20037;-69
2021/04/09 11:24:20;;;;;;;6.85;4.00;;;;;;;14.64;32.16;100453.91;5010811;28;20124;-70
2021/04/09 11:26:46;;;;;;;5.72;3.40;;;;;;;14.38;33.15;100455.09;4993594;28;20094;-73
2021/04/09 11:29:20;;;;;;;5.05;3.50;;;;;;;14.27;33.30;100452.84;5008571;28;20136;-69
2021/04/09 11:31:45;;;;;;;5.57;3.38;;;;;;;14.40;33.23;100452.28;5011242;28;20392;-69
2021/04/09 11:34:11;;;;;;;6.63;4.13;;;;;;;14.50;32.99;100444.03;5002135;28;20041;-70
2021/04/09 11:36:50;;;;;;;8.32;4.05;;;;;;;14.71;32.11;100444.22;5013152;28;20066;-70
2021/04/09 11:39:17;;;;;;;9.02;3.70;;;;;;;14.64;32.77;100451.25;5011285;28;20088;-68